Time;durP1;ratioP1;P1;durP2;ratioP2;P2;SDS_P1;SDS_P2;PMS_P1;PMS_P2;Temp;Humidity;BMP_temperature;BMP_pressure;BME280_temperature;BME280_humidity;BME280_pressure;Samples;Min_cycle;Max_cycle;Signal;HPM_P1;HPM_P2
2022/09/17 00:01:16;;;;;;;4.78;2.10;;;;;;;;;;5006862;28;20372;-45
2022/09/17 00:03:42;;;;;;;3.65;1.90;;;;;;;;;;5006303;28;20030;-46
2022/09/17 00:06:11;;;;;;;3.55;2.38;;;;;;;;;;5006478;28;20037;-45
2022/09/17 00:08:38;;;;;;;2.90;2.00;;;;;;;;;;5006582;28;20518;-47
2022/09/17 00:11:20;;;;;;;5.78;1.92;;;;;;;;;;5015125;28;20063;-44
2022/09/17 00:13:46;;;;;;;7.37;2.43;;;;;;;;;;5023375;28;20037;-44
2022/09/17 00:16:12;;;;;;;3.28;2.10;;;;;;;;;;5016513;28;20034;-43
2022/09/17 00:18:40;;;;;;;6.28;2.22;;;;;;;;;;5005156;28;20112;-45
2022/09/17 00:21:14;;;;;;;3.00;2.10;;;;;;;;;;5006956;28;20050;-47
2022/09/17 00:23:39;;;;;;;6.72;2.20;;;;;;;;;;5006333;28;20034;-44
2022/09/17 00:26:05;;;;;;;9.35;2.10;;;;;;;;;;5014735;28;20486;-44
2022/09/17 00:28:31;;;;;;;2.88;2.40;;;;;;;;;;5027626;28;20041;-45
2022/09/17 00:30:57;;;;;;;4.60;2.42;;;;;;;;;;5026349;28;20033;-45
2022/09/17 00:33:22;;;;;;;8.63;2.10;;;;;;;;;;5025338;28;20030;-45
2022/09/17 00:35:59;;;;;;;5.22;2.33;;;;;;;;;;5019993;28;20092;-43
2022/09/17 00:38:25;;;;;;;2.92;2.08;;;;;;;;;;5007689;28;20034;-44
2022/09/17 00:40:51;;;;;;;2.17;1.67;;;;;;;;;;5011432;28;20590;-44
2022/09/17 00:43:45;;;;;;;3.90;2.05;;;;;;;;;;5026190;28;20128;-44
2022/09/17 00:46:24;;;;;;;3.03;1.85;;;;;;;;;;5026011;28;20128;-44
2022/09/17 00:48:53;;;;;;;4.63;1.80;;;;;;;;;;5024177;28;20033;-44
2022/09/17 00:51:27;;;;;;;2.95;1.70;;;;;;;;;;5025471;28;20056;-44
2022/09/17 00:53:54;;;;;;;6.32;2.35;;;;;;;;;;5025147;28;20447;-46
2022/09/17 00:56:28;;;;;;;3.20;1.90;;;;;;;;;;5028267;28;20033;-44
2022/09/17 00:58:54;;;;;;;7.65;2.05;;;;;;;;;;5026712;28;20049;-45
2022/09/17 01:01:20;;;;;;;2.50;1.88;;;;;;;;;;5026550;28;20132;-45
2022/09/17 01:03:46;;;;;;;2.47;2.28;;;;;;;;;;5026399;28;20534;-44
2022/09/17 01:06:40;;;;;;;1.88;1.77;;;;;;;;;;5028697;28;20037;-46
2022/09/17 01:09:35;;;;;;;3.42;1.92;;;;;;;;;;5024497;28;20065;-44
2022/09/17 01:12:19;;;;;;;5.03;2.22;;;;;;;;;;5025338;28;20034;-47
2022/09/17 01:15:14;;;;;;;6.97;2.60;;;;;;;;;;5025291;28;20030;-44
2022/09/17 01:17:58;;;;;;;7.22;1.90;;;;;;;;;;5025072;28;20498;-44
2022/09/17 01:20:43;;;;;;;7.72;1.90;;;;;;;;;;5020268;28;20103;-50
2022/09/17 01:23:33;;;;;;;3.33;1.70;;;;;;;;;;5002070;28;20117;-44
2022/09/17 01:26:10;;;;;;;2.38;2.05;;;;;;;;;;5005377;28;20100;-48
2022/09/17 01:29:08;;;;;;;2.55;1.70;;;;;;;;;;5005300;28;20081;-48
2022/09/17 01:31:46;;;;;;;2.85;2.00;;;;;;;;;;4989999;28;20132;-44
2022/09/17 01:34:11;;;;;;;3.05;2.08;;;;;;;;;;5004364;28;20121;-45
2022/09/17 01:36:46;;;;;;;2.03;1.85;;;;;;;;;;5004386;28;20157;-49
2022/09/17 01:39:35;;;;;;;3.33;2.08;;;;;;;;;;5003274;28;20029;-47
2022/09/17 01:42:13;;;;;;;5.25;2.00;;;;;;;;;;4998196;28;20192;-44
2022/09/17 01:44:50;;;;;;;3.72;1.85;;;;;;;;;;5005210;28;20034;-45
2022/09/17 01:47:21;;;;;;;5.07;2.15;;;;;;;;;;5003357;28;20049;-45
2022/09/17 01:49:50;;;;;;;3.28;2.03;;;;;;;;;;5004325;28;20048;-44
2022/09/17 01:52:17;;;;;;;5.57;1.90;;;;;;;;;;5003130;28;20085;-44
2022/09/17 01:54:48;;;;;;;2.78;1.88;;;;;;;;;;5004548;28;20491;-43
2022/09/17 01:57:56;;;;;;;2.10;1.67;;;;;;;;;;5005891;28;20121;-45
2022/09/17 02:00:22;;;;;;;4.90;1.75;;;;;;;;;;4993009;28;20056;-45
2022/09/17 02:02:54;;;;;;;3.55;1.98;;;;;;;;;;5009047;28;20092;-44
2022/09/17 02:05:40;;;;;;;2.20;1.80;;;;;;;;;;5008475;28;20057;-44
2022/09/17 02:08:29;;;;;;;2.88;1.95;;;;;;;;;;5020650;28;20121;-44
2022/09/17 02:11:01;;;;;;;4.50;1.67;;;;;;;;;;5024574;28;20038;-47
2022/09/17 02:13:40;;;;;;;4.30;1.98;;;;;;;;;;5027458;28;20040;-44
2022/09/17 02:16:23;;;;;;;2.20;1.75;;;;;;;;;;5016852;28;20045;-44
2022/09/17 02:19:08;;;;;;;4.35;2.03;;;;;;;;;;5009156;28;20049;-44
2022/09/17 02:21:55;;;;;;;7.78;1.80;;;;;;;;;;5013365;28;20133;-44
2022/09/17 02:24:30;;;;;;;3.83;1.67;;;;;;;;;;5016492;28;20030;-44
2022/09/17 02:27:03;;;;;;;3.00;1.80;;;;;;;;;;5013263;28;20129;-46
2022/09/17 02:29:33;;;;;;;2.80;1.50;;;;;;;;;;5019020;28;20466;-44
2022/09/17 02:31:59;;;;;;;4.28;1.63;;;;;;;;;;5013106;28;20143;-44
2022/09/17 02:34:27;;;;;;;2.47;1.48;;;;;;;;;;5014937;28;20029;-44
2022/09/17 02:36:54;;;;;;;3.58;1.77;;;;;;;;;;5011989;28;20069;-45
2022/09/17 02:39:19;;;;;;;2.63;1.60;;;;;;;;;;5017687;28;20029;-44
2022/09/17 02:41:55;;;;;;;5.72;1.55;;;;;;;;;;5011990;28;20509;-45
2022/09/17 02:44:30;;;;;;;1.80;1.42;;;;;;;;;;5005781;28;20029;-43
2022/09/17 02:47:24;;;;;;;3.70;1.80;;;;;;;;;;5018465;28;20033;-45
2022/09/17 02:49:59;;;;;;;4.80;1.48;;;;;;;;;;5024086;28;20395;-44
2022/09/17 02:52:53;;;;;;;12.57;1.63;;;;;;;;;;5004126;28;20045;-44
2022/09/17 02:55:26;;;;;;;3.90;1.40;;;;;;;;;;5005693;28;20483;-44
2022/09/17 02:57:55;;;;;;;1.38;1.27;;;;;;;;;;5007814;28;20042;-44
2022/09/17 03:00:22;;;;;;;5.20;1.58;;;;;;;;;;5006691;28;20073;-46
2022/09/17 03:03:06;;;;;;;3.25;1.40;;;;;;;;;;5007467;28;20372;-44
2022/09/17 03:05:35;;;;;;;1.98;1.40;;;;;;;;;;5011729;28;20513;-44
2022/09/17 03:08:01;;;;;;;1.70;1.50;;;;;;;;;;5022559;28;20047;-45
2022/09/17 03:10:29;;;;;;;5.80;1.33;;;;;;;;;;5022555;28;20486;-44
2022/09/17 03:12:54;;;;;;;8.70;1.70;;;;;;;;;;5007137;28;20069;-45
2022/09/17 03:15:20;;;;;;;2.50;1.88;;;;;;;;;;5008255;28;20619;-45
2022/09/17 03:17:45;;;;;;;3.38;1.50;;;;;;;;;;5026302;28;20049;-44
2022/09/17 03:20:11;;;;;;;2.22;1.40;;;;;;;;;;5024912;28;20622;-45
2022/09/17 03:22:36;;;;;;;1.98;1.60;;;;;;;;;;5008161;28;20026;-45
2022/09/17 03:25:02;;;;;;;2.83;1.70;;;;;;;;;;5004775;28;20394;-45
2022/09/17 03:27:28;;;;;;;3.33;1.55;;;;;;;;;;5006912;28;20034;-46
2022/09/17 03:29:53;;;;;;;2.53;1.42;;;;;;;;;;5008139;28;20053;-44
2022/09/17 03:32:19;;;;;;;3.25;1.40;;;;;;;;;;5025459;28;20040;-44
2022/09/17 03:34:45;;;;;;;3.03;1.38;;;;;;;;;;5023183;28;20021;-43
2022/09/17 03:37:12;;;;;;;3.72;1.50;;;;;;;;;;5028607;28;20425;-44
2022/09/17 03:39:37;;;;;;;3.30;1.80;;;;;;;;;;5028724;28;20034;-43
2022/09/17 03:42:03;;;;;;;1.38;1.20;;;;;;;;;;5023464;28;20498;-45
2022/09/17 03:44:29;;;;;;;2.63;1.70;;;;;;;;;;5027117;28;20371;-45
2022/09/17 03:46:55;;;;;;;3.97;1.80;;;;;;;;;;5011239;28;20030;-44
2022/09/17 03:49:22;;;;;;;2.70;1.50;;;;;;;;;;5008075;28;20438;-43
2022/09/17 03:51:48;;;;;;;2.50;1.40;;;;;;;;;;5006674;28;20038;-44
2022/09/17 03:54:13;;;;;;;4.63;1.50;;;;;;;;;;5007890;28;20029;-45
2022/09/17 03:56:39;;;;;;;6.93;2.25;;;;;;;;;;5007152;28;20495;-43
2022/09/17 03:59:05;;;;;;;4.78;1.40;;;;;;;;;;5002618;28;20176;-46
2022/09/17 04:01:30;;;;;;;1.90;1.60;;;;;;;;;;5008592;28;20387;-44
2022/09/17 04:03:56;;;;;;;8.00;1.23;;;;;;;;;;5004917;28;20384;-45
2022/09/17 04:06:21;;;;;;;4.95;1.60;;;;;;;;;;5018814;28;20384;-43
2022/09/17 04:08:47;;;;;;;3.83;1.50;;;;;;;;;;5027242;28;20109;-44
2022/09/17 04:11:13;;;;;;;5.78;1.80;;;;;;;;;;5026560;28;20072;-43
2022/09/17 04:13:38;;;;;;;1.85;1.40;;;;;;;;;;5025497;28;20045;-45
2022/09/17 04:16:04;;;;;;;2.30;1.15;;;;;;;;;;5014909;28;20042;-44
2022/09/17 04:18:30;;;;;;;1.95;1.48;;;;;;;;;;5005458;28;20116;-43
2022/09/17 04:20:56;;;;;;;2.67;1.45;;;;;;;;;;5005185;28;20068;-45
2022/09/17 04:23:22;;;;;;;1.98;1.40;;;;;;;;;;5005999;28;20058;-43
2022/09/17 04:25:48;;;;;;;4.00;1.50;;;;;;;;;;5005929;28;20034;-45
2022/09/17 04:28:14;;;;;;;5.68;1.55;;;;;;;;;;5007615;28;20112;-45
2022/09/17 04:30:41;;;;;;;1.50;1.40;;;;;;;;;;5007887;28;20045;-47
2022/09/17 04:33:08;;;;;;;4.45;1.63;;;;;;;;;;5004752;28;20057;-44
2022/09/17 04:35:34;;;;;;;6.35;1.58;;;;;;;;;;5009033;28;20046;-46
2022/09/17 04:38:00;;;;;;;4.05;1.30;;;;;;;;;;5026641;28;20056;-49
2022/09/17 04:40:26;;;;;;;5.10;1.80;;;;;;;;;;5024372;28;20494;-44
2022/09/17 04:42:53;;;;;;;2.85;1.55;;;;;;;;;;5025615;28;20128;-44
2022/09/17 04:45:20;;;;;;;3.65;1.80;;;;;;;;;;5021742;28;20121;-46
2022/09/17 04:47:45;;;;;;;2.10;1.08;;;;;;;;;;5004379;28;20029;-45
2022/09/17 04:50:11;;;;;;;1.80;1.13;;;;;;;;;;5005098;28;20036;-46
2022/09/17 04:52:41;;;;;;;5.32;1.30;;;;;;;;;;5012390;28;20044;-44
2022/09/17 04:55:07;;;;;;;1.88;1.30;;;;;;;;;;5011924;28;20025;-43
2022/09/17 04:57:33;;;;;;;2.33;1.30;;;;;;;;;;5009485;28;20069;-44
2022/09/17 04:59:58;;;;;;;2.08;1.23;;;;;;;;;;5021012;28;20072;-44
2022/09/17 05:02:24;;;;;;;2.15;1.65;;;;;;;;;;5004646;28;20041;-46
2022/09/17 05:04:49;;;;;;;3.70;2.38;;;;;;;;;;5002739;28;20033;-44
2022/09/17 05:07:15;;;;;;;2.85;1.42;;;;;;;;;;5004234;28;20091;-44
2022/09/17 05:09:41;;;;;;;1.63;1.23;;;;;;;;;;5007102;28;20495;-49
2022/09/17 05:12:06;;;;;;;2.00;1.40;;;;;;;;;;5004978;28;20065;-45
2022/09/17 05:14:32;;;;;;;4.40;1.60;;;;;;;;;;5006598;28;20021;-44
2022/09/17 05:16:58;;;;;;;1.92;1.17;;;;;;;;;;5020131;28;20138;-48
2022/09/17 05:19:23;;;;;;;2.88;1.70;;;;;;;;;;5024502;28;20478;-43
2022/09/17 05:21:49;;;;;;;7.95;1.75;;;;;;;;;;5022993;28;20045;-46
2022/09/17 05:24:14;;;;;;;6.72;1.70;;;;;;;;;;5025086;28;20379;-45
2022/09/17 05:26:40;;;;;;;6.28;1.40;;;;;;;;;;5010990;28;20125;-46
2022/09/17 05:29:05;;;;;;;3.40;1.38;;;;;;;;;;5006180;28;20029;-45
2022/09/17 05:31:31;;;;;;;4.00;1.88;;;;;;;;;;5003773;28;20071;-44
2022/09/17 05:33:57;;;;;;;3.30;1.95;;;;;;;;;;5007191;28;20029;-45
2022/09/17 05:36:23;;;;;;;4.30;1.70;;;;;;;;;;5004144;28;20044;-46
2022/09/17 05:38:49;;;;;;;5.47;1.88;;;;;;;;;;5004611;28;20026;-44
2022/09/17 05:41:14;;;;;;;2.67;1.60;;;;;;;;;;5014328;28;20120;-47
2022/09/17 05:43:42;;;;;;;1.73;1.30;;;;;;;;;;5022553;28;20394;-43
2022/09/17 05:46:08;;;;;;;5.75;1.83;;;;;;;;;;5014772;28;20402;-44
2022/09/17 05:48:34;;;;;;;1.85;1.20;;;;;;;;;;5005565;28;20038;-44
2022/09/17 05:50:59;;;;;;;1.50;1.20;;;;;;;;;;5000598;28;20042;-43
2022/09/17 05:53:25;;;;;;;2.53;1.20;;;;;;;;;;5003274;28;20033;-43
2022/09/17 05:55:55;;;;;;;3.38;1.42;;;;;;;;;;5013479;28;20453;-45
2022/09/17 05:58:21;;;;;;;5.60;1.40;;;;;;;;;;5023763;28;20502;-47
2022/09/17 06:00:47;;;;;;;4.80;1.40;;;;;;;;;;5015970;28;20053;-44
2022/09/17 06:03:16;;;;;;;1.65;1.40;;;;;;;;;;5003839;28;20068;-43
2022/09/17 06:05:42;;;;;;;8.48;1.58;;;;;;;;;;5005504;28;20763;-43
2022/09/17 06:08:08;;;;;;;4.72;1.20;;;;;;;;;;5004506;28;20431;-43
2022/09/17 06:10:37;;;;;;;4.30;1.42;;;;;;;;;;5003838;28;20072;-45
2022/09/17 06:13:03;;;;;;;6.28;1.25;;;;;;;;;;5005410;28;20034;-46
2022/09/17 06:15:29;;;;;;;3.03;1.70;;;;;;;;;;5007535;28;20048;-45
2022/09/17 06:17:55;;;;;;;1.42;1.30;;;;;;;;;;5024192;28;20112;-46
2022/09/17 06:20:21;;;;;;;2.38;1.40;;;;;;;;;;5024724;28;20389;-44
2022/09/17 06:22:47;;;;;;;1.58;1.00;;;;;;;;;;5024820;28;20116;-44
2022/09/17 06:25:13;;;;;;;4.60;1.58;;;;;;;;;;5022719;28;20437;-44
2022/09/17 06:27:38;;;;;;;2.50;1.45;;;;;;;;;;5002902;28;20060;-46
2022/09/17 06:30:05;;;;;;;10.77;1.23;;;;;;;;;;5002769;28;20100;-46
2022/09/17 06:32:31;;;;;;;2.33;1.40;;;;;;;;;;5005058;28;20038;-45
2022/09/17 06:34:57;;;;;;;5.20;1.52;;;;;;;;;;5004036;28;20033;-45
2022/09/17 06:37:31;;;;;;;1.98;1.15;;;;;;;;;;5002071;28;20077;-46
2022/09/17 06:39:58;;;;;;;7.47;1.40;;;;;;;;;;5006764;28;20379;-48
2022/09/17 06:42:25;;;;;;;1.90;1.08;;;;;;;;;;5003379;28;20104;-46
2022/09/17 06:44:50;;;;;;;4.32;1.60;;;;;;;;;;5005850;28;20418;-45
2022/09/17 06:47:16;;;;;;;0.82;0.82;;;;;;;;;;5006993;28;20047;-45
2022/09/17 06:49:42;;;;;;;5.80;1.00;;;;;;;;;;5009257;28;20033;-45
2022/09/17 06:52:08;;;;;;;3.17;0.77;;;;;;;;;;5009621;28;20415;-45
2022/09/17 06:54:33;;;;;;;5.40;1.48;;;;;;;;;;5004572;28;20037;-44
2022/09/17 06:56:59;;;;;;;2.80;1.00;;;;;;;;;;5022851;28;20121;-45
2022/09/17 06:59:25;;;;;;;3.65;1.17;;;;;;;;;;5027442;28;20041;-48
2022/09/17 07:01:51;;;;;;;1.60;1.02;;;;;;;;;;5025167;28;20050;-47
2022/09/17 07:04:17;;;;;;;7.88;1.13;;;;;;;;;;5027555;28;20037;-46
2022/09/17 07:06:44;;;;;;;1.52;0.93;;;;;;;;;;5013518;28;20137;-45
2022/09/17 07:09:10;;;;;;;8.27;1.20;;;;;;;;;;5007096;28;20101;-46
2022/09/17 07:11:36;;;;;;;3.25;1.10;;;;;;;;;;5004976;28;20048;-44
2022/09/17 07:14:03;;;;;;;6.70;1.13;;;;;;;;;;5008556;28;20517;-45
2022/09/17 07:16:31;;;;;;;0.80;0.80;;;;;;;;;;4997598;28;20147;-45
2022/09/17 07:18:57;;;;;;;5.07;1.00;;;;;;;;;;5006084;28;20029;-45
2022/09/17 07:21:23;;;;;;;14.30;0.90;;;;;;;;;;5009632;28;20100;-47
2022/09/17 07:23:50;;;;;;;12.63;1.10;;;;;;;;;;5023543;28;20061;-45
2022/09/17 07:26:16;;;;;;;4.10;1.10;;;;;;;;;;5014765;28;20044;-44
2022/09/17 07:28:42;;;;;;;6.25;1.05;;;;;;;;;;5003334;28;20422;-51
2022/09/17 07:31:09;;;;;;;5.05;1.30;;;;;;;;;;5001029;28;20034;-47
2022/09/17 07:33:36;;;;;;;4.72;1.25;;;;;;;;;;5004279;28;20074;-44
2022/09/17 07:36:05;;;;;;;5.88;1.20;;;;;;;;;;5009663;28;20041;-46
2022/09/17 07:38:32;;;;;;;2.55;0.98;;;;;;;;;;5021160;28;20470;-47
2022/09/17 07:41:06;;;;;;;3.63;0.90;;;;;;;;;;5023899;28;20045;-46
2022/09/17 07:43:34;;;;;;;4.78;1.08;;;;;;;;;;5023573;28;20029;-48
2022/09/17 07:46:02;;;;;;;4.00;0.98;;;;;;;;;;5016199;28;20049;-47
2022/09/17 07:48:29;;;;;;;5.28;1.20;;;;;;;;;;5007724;28;20049;-43
2022/09/17 07:50:57;;;;;;;1.67;0.88;;;;;;;;;;5005266;28;20052;-44
2022/09/17 07:53:25;;;;;;;3.22;1.25;;;;;;;;;;5007742;28;20513;-44
2022/09/17 07:55:59;;;;;;;8.38;1.08;;;;;;;;;;5009504;28;20842;-45
2022/09/17 07:58:34;;;;;;;1.98;0.85;;;;;;;;;;5024898;28;20048;-47
2022/09/17 08:01:02;;;;;;;8.18;1.15;;;;;;;;;;5014140;28;20038;-47
2022/09/17 08:03:27;;;;;;;3.28;0.70;;;;;;;;;;5006332;28;20620;-48
2022/09/17 08:05:53;;;;;;;1.63;0.90;;;;;;;;;;5005685;28;20046;-43
2022/09/17 08:08:19;;;;;;;1.75;1.00;;;;;;;;;;5006254;28;20030;-43
2022/09/17 08:10:44;;;;;;;4.50;1.00;;;;;;;;;;5008556;28;20506;-44
2022/09/17 08:13:10;;;;;;;1.52;0.88;;;;;;;;;;5018620;28;20120;-44
2022/09/17 08:15:35;;;;;;;2.50;1.20;;;;;;;;;;5013409;28;20066;-46
2022/09/17 08:18:01;;;;;;;5.90;1.08;;;;;;;;;;5006199;28;20030;-49
2022/09/17 08:20:26;;;;;;;0.90;0.70;;;;;;;;;;5004681;28;20095;-44
2022/09/17 08:22:59;;;;;;;3.67;0.75;;;;;;;;;;5024789;28;20033;-47
2022/09/17 08:25:25;;;;;;;1.00;0.88;;;;;;;;;;5023401;28;20036;-47
2022/09/17 08:27:55;;;;;;;1.70;0.68;;;;;;;;;;5021891;28;20033;-48
2022/09/17 08:30:21;;;;;;;5.68;0.80;;;;;;;;;;5025746;28;20040;-46
2022/09/17 08:32:47;;;;;;;2.72;0.70;;;;;;;;;;5026461;28;20091;-44
2022/09/17 08:35:13;;;;;;;4.03;0.68;;;;;;;;;;5024689;28;20037;-45
2022/09/17 08:37:38;;;;;;;1.50;0.60;;;;;;;;;;5008197;28;20042;-44
2022/09/17 08:40:04;;;;;;;6.05;0.95;;;;;;;;;;5006513;28;20032;-45
2022/09/17 08:42:38;;;;;;;4.65;0.80;;;;;;;;;;5000270;28;20042;-45
2022/09/17 08:45:09;;;;;;;8.25;0.90;;;;;;;;;;5005395;28;20033;-46
2022/09/17 08:47:37;;;;;;;3.28;0.57;;;;;;;;;;5005782;28;20518;-46
2022/09/17 08:50:06;;;;;;;2.78;0.80;;;;;;;;;;5004953;28;20088;-45
2022/09/17 08:53:12;;;;;;;3.55;1.13;;;;;;;;;;5020078;28;20046;-45
2022/09/17 08:56:08;;;;;;;2.00;0.95;;;;;;;;;;5021199;28;20048;-51
2022/09/17 08:58:58;;;;;;;2.80;1.15;;;;;;;;;;5017159;28;20042;-45
2022/09/17 09:01:45;;;;;;;4.88;0.70;;;;;;;;;;5010137;28;20046;-47
2022/09/17 09:04:48;;;;;;;3.95;1.10;;;;;;;;;;5000664;28;20869;-47
2022/09/17 09:07:26;;;;;;;4.90;0.60;;;;;;;;;;4998828;28;20070;-44
2022/09/17 09:10:03;;;;;;;1.38;0.82;;;;;;;;;;5000115;28;20030;-47
2022/09/17 09:12:34;;;;;;;6.30;1.08;;;;;;;;;;5016934;28;20046;-45
2022/09/17 09:15:07;;;;;;;9.63;0.82;;;;;;;;;;5023991;28;20029;-45
2022/09/17 09:17:45;;;;;;;3.20;0.70;;;;;;;;;;5004614;28;20135;-46
2022/09/17 09:20:50;;;;;;;5.18;1.08;;;;;;;;;;5003851;28;20026;-49
2022/09/17 09:23:45;;;;;;;4.75;1.20;;;;;;;;;;4947232;28;20539;-45
2022/09/17 09:26:17;;;;;;;12.32;2.10;;;;;;;;;;4949982;28;20097;-45
2022/09/17 09:28:58;;;;;;;9.27;1.17;;;;;;;;;;4961378;28;20047;-47
2022/09/17 09:31:53;;;;;;;3.03;0.88;;;;;;;;;;4960791;28;20058;-48
2022/09/17 09:34:19;;;;;;;11.90;1.17;;;;;;;;;;4947782;28;20046;-45
2022/09/17 09:36:46;;;;;;;12.00;1.20;;;;;;;;;;4960347;28;20122;-44
2022/09/17 09:39:14;;;;;;;3.53;0.70;;;;;;;;;;4964870;28;20043;-47
2022/09/17 09:41:45;;;;;;;1.23;0.47;;;;;;;;;;4966115;28;20133;-45
2022/09/17 09:44:12;;;;;;;2.28;0.75;;;;;;;;;;4958957;28;20063;-48
2022/09/17 09:47:06;;;;;;;4.70;1.00;;;;;;;;;;4962224;28;20039;-46
2022/09/17 09:49:53;;;;;;;9.32;1.00;;;;;;;;;;4963594;28;20406;-45
2022/09/17 09:52:23;;;;;;;2.92;0.70;;;;;;;;;;4962602;28;20126;-47
2022/09/17 09:55:01;;;;;;;3.72;0.90;;;;;;;;;;4962132;28;20515;-45
2022/09/17 09:58:02;;;;;;;9.48;1.00;;;;;;;;;;4960255;28;20086;-45
2022/09/17 10:00:29;;;;;;;5.20;1.02;;;;;;;;;;5001722;28;20495;-44
2022/09/17 10:03:19;;;;;;;4.43;1.13;;;;;;;;;;5021056;28;20038;-47
2022/09/17 10:05:57;;;;;;;4.10;0.70;;;;;;;;;;5007396;28;20046;-46
2022/09/17 10:08:24;;;;;;;6.32;0.95;;;;;;;;;;5003042;28;20033;-46
2022/09/17 10:11:03;;;;;;;2.92;0.70;;;;;;;;;;5002454;28;20442;-45
2022/09/17 10:13:35;;;;;;;3.92;1.00;;;;;;;;;;5003724;28;20399;-45
2022/09/17 10:16:20;;;;;;;1.52;0.75;;;;;;;;;;5000617;28;20037;-45
2022/09/17 10:18:48;;;;;;;1.45;0.80;;;;;;;;;;5007054;28;20038;-45
2022/09/17 10:21:22;;;;;;;1.77;0.70;;;;;;;;;;5015799;28;20072;-45
2022/09/17 10:23:49;;;;;;;5.57;0.70;;;;;;;;;;5025079;28;20171;-46
2022/09/17 10:26:28;;;;;;;4.65;0.80;;;;;;;;;;5025010;28;20060;-45
2022/09/17 10:29:03;;;;;;;5.68;1.10;;;;;;;;;;5026686;28;20493;-47
2022/09/17 10:31:47;;;;;;;12.52;1.48;;;;;;;;;;5014957;28;20049;-44
2022/09/17 10:34:25;;;;;;;3.28;0.65;;;;;;;;;;5009159;28;20375;-45
2022/09/17 10:36:51;;;;;;;2.08;0.60;;;;;;;;;;5022651;28;20584;-45
2022/09/17 10:39:26;;;;;;;5.10;0.85;;;;;;;;;;5028130;28;20505;-44
2022/09/17 10:42:01;;;;;;;4.85;0.73;;;;;;;;;;5010637;28;20045;-45
2022/09/17 10:44:29;;;;;;;4.88;0.70;;;;;;;;;;5007869;28;20032;-45
2022/09/17 10:47:02;;;;;;;4.78;0.77;;;;;;;;;;5003675;28;20042;-46
2022/09/17 10:49:38;;;;;;;4.93;0.85;;;;;;;;;;5006472;28;20072;-45
2022/09/17 10:52:20;;;;;;;11.10;0.82;;;;;;;;;;5004393;28;20133;-46
2022/09/17 10:54:58;;;;;;;3.83;0.50;;;;;;;;;;5005329;28;20052;-45
2022/09/17 10:57:56;;;;;;;6.45;0.80;;;;;;;;;;5021147;28;20076;-47
2022/09/17 11:00:23;;;;;;;5.50;1.10;;;;;;;;;;4969206;28;20543;-48
2022/09/17 11:03:16;;;;;;;1.83;0.70;;;;;;;;;;4983006;28;20439;-49
2022/09/17 11:06:01;;;;;;;3.60;0.88;;;;;;;;;;4988511;28;20046;-45
2022/09/17 11:08:37;;;;;;;3.00;0.82;;;;;;;;;;4984744;28;20108;-47
2022/09/17 11:11:40;;;;;;;1.63;0.63;;;;;;;;;;4986617;28;20170;-45
2022/09/17 11:14:13;;;;;;;9.43;1.25;;;;;;;;;;4982055;28;20050;-44
2022/09/17 11:17:12;;;;;;;4.82;0.60;;;;;;;;;;4986262;28;20329;-47
2022/09/17 11:20:03;;;;;;;1.13;0.65;;;;;;;;;;4984427;28;20065;-47
2022/09/17 11:22:49;;;;;;;1.40;0.70;;;;;;;;;;4985366;28;20038;-46
2022/09/17 11:25:26;;;;;;;5.88;0.60;;;;;;;;;;4984379;28;20054;-45
2022/09/17 11:28:03;;;;;;;3.72;0.65;;;;;;;;;;4985168;28;20427;-46
2022/09/17 11:30:40;;;;;;;4.57;0.70;;;;;;;;;;4983450;28;20073;-48
2022/09/17 11:33:43;;;;;;;5.85;0.95;;;;;;;;;;4986296;28;20066;-44
2022/09/17 11:36:44;;;;;;;1.50;0.80;;;;;;;;;;5008343;28;20521;-46
2022/09/17 11:39:19;;;;;;;3.72;0.60;;;;;;;;;;5022961;28;20037;-45
2022/09/17 11:41:47;;;;;;;2.70;0.77;;;;;;;;;;5009169;28;20075;-48
2022/09/17 11:44:19;;;;;;;7.25;0.70;;;;;;;;;;5006087;28;20017;-45
2022/09/17 11:47:23;;;;;;;0.75;0.50;;;;;;;;;;5019213;28;20141;-45
2022/09/17 11:50:00;;;;;;;1.65;0.80;;;;;;;;;;4985437;28;20161;-44
2022/09/17 11:52:31;;;;;;;1.52;0.70;;;;;;;;;;5005449;28;20076;-45
2022/09/17 11:55:17;;;;;;;5.65;0.60;;;;;;;;;;5004088;28;20069;-47
2022/09/17 11:57:43;;;;;;;4.38;0.60;;;;;;;;;;5003745;28;20140;-45
2022/09/17 12:00:17;;;;;;;4.68;0.80;;;;;;;;;;4999074;28;20042;-47
2022/09/17 12:03:16;;;;;;;2.95;0.63;;;;;;;;;;5000570;28;20701;-45
2022/09/17 12:05:48;;;;;;;1.73;0.60;;;;;;;;;;4999942;28;20042;-46
2022/09/17 12:08:20;;;;;;;;;;;;;;;;;;5004064;28;20481;-47
2022/09/17 12:10:57;;;;;;;4.00;0.65;;;;;;;;;;5004729;28;20396;-46
2022/09/17 12:13:41;;;;;;;1.38;0.52;;;;;;;;;;5002289;28;20043;-45
2022/09/17 12:16:19;;;;;;;1.70;0.60;;;;;;;;;;5002673;28;20041;-46
2022/09/17 12:19:19;;;;;;;6.13;0.85;;;;;;;;;;5002762;28;20038;-47
2022/09/17 12:21:49;;;;;;;0.40;0.40;;;;;;;;;;5002451;28;20046;-54
2022/09/17 12:24:27;;;;;;;2.35;0.60;;;;;;;;;;5000328;28;20026;-45
2022/09/17 12:27:17;;;;;;;1.15;0.60;;;;;;;;;;5022921;28;20045;-44
2022/09/17 12:30:09;;;;;;;0.77;0.50;;;;;;;;;;5024704;28;20033;-45
2022/09/17 12:32:55;;;;;;;0.40;0.38;;;;;;;;;;5022212;28;20164;-45
2022/09/17 12:35:27;;;;;;;4.32;0.63;;;;;;;;;;5021691;28;20036;-48
2022/09/17 12:38:08;;;;;;;;;;;;;;;;;;5006380;28;20061;-45
2022/09/17 12:40:47;;;;;;;1.05;0.50;;;;;;;;;;5003001;28;19983;-45
2022/09/17 12:43:35;;;;;;;5.88;0.50;;;;;;;;;;5006313;28;20045;-47
2022/09/17 12:46:19;;;;;;;5.10;0.73;;;;;;;;;;5012562;28;20132;-47
2022/09/17 12:48:53;;;;;;;1.52;0.70;;;;;;;;;;5021336;28;20029;-44
2022/09/17 12:51:45;;;;;;;1.50;0.52;;;;;;;;;;5010536;28;20448;-44
2022/09/17 12:54:35;;;;;;;4.10;0.75;;;;;;;;;;4939673;29;20611;-46
2022/09/17 12:57:09;;;;;;;2.55;0.70;;;;;;;;;;4973802;28;20450;-48
2022/09/17 12:59:48;;;;;;;4.95;0.60;;;;;;;;;;4979965;28;20122;-45
2022/09/17 13:02:14;;;;;;;1.98;0.65;;;;;;;;;;4983190;28;20053;-45
2022/09/17 13:04:50;;;;;;;1.75;0.50;;;;;;;;;;4984263;28;20046;-44
2022/09/17 13:07:36;;;;;;;2.35;0.63;;;;;;;;;;4983033;28;20083;-44
2022/09/17 13:10:24;;;;;;;4.72;0.60;;;;;;;;;;4981686;28;20133;-45
2022/09/17 13:13:05;;;;;;;6.25;0.32;;;;;;;;;;4982382;28;20102;-45
2022/09/17 13:16:09;;;;;;;1.95;0.55;;;;;;;;;;4983064;28;20049;-45
2022/09/17 13:18:40;;;;;;;1.23;0.45;;;;;;;;;;4927701;29;20048;-45
2022/09/17 13:21:12;;;;;;;2.30;0.65;;;;;;;;;;4927566;29;20544;-46
2022/09/17 13:23:42;;;;;;;16.17;0.70;;;;;;;;;;4927835;29;20051;-46
2022/09/17 13:26:09;;;;;;;0.98;0.50;;;;;;;;;;4911755;29;20040;-47
2022/09/17 13:28:53;;;;;;;3.50;1.02;;;;;;;;;;4925960;29;20067;-45
2022/09/17 13:31:22;;;;;;;7.35;0.70;;;;;;;;;;4937101;28;20122;-50
2022/09/17 13:33:51;;;;;;;6.75;0.50;;;;;;;;;;4945130;28;20097;-48
2022/09/17 13:36:49;;;;;;;1.83;0.60;;;;;;;;;;4946614;28;20044;-45
2022/09/17 13:39:46;;;;;;;3.95;0.82;;;;;;;;;;4945205;28;20035;-46
2022/09/17 13:42:27;;;;;;;4.40;0.50;;;;;;;;;;4943859;28;20500;-45
2022/09/17 13:45:32;;;;;;;1.45;0.65;;;;;;;;;;4945252;28;20039;-46
2022/09/17 13:48:10;;;;;;;3.30;0.50;;;;;;;;;;4940444;28;20047;-45
2022/09/17 13:50:36;;;;;;;3.63;0.50;;;;;;;;;;4945175;28;20051;-45
2022/09/17 13:53:12;;;;;;;2.55;0.57;;;;;;;;;;4947816;28;20039;-46
2022/09/17 13:55:43;;;;;;;2.33;0.47;;;;;;;;;;4987669;28;20052;-45
2022/09/17 13:58:30;;;;;;;8.73;1.23;;;;;;;;;;5025987;28;20044;-45
2022/09/17 14:01:13;;;;;;;6.40;0.57;;;;;;;;;;5022088;28;20041;-49
2022/09/17 14:03:45;;;;;;;0.75;0.47;;;;;;;;;;5007999;28;20668;-45
2022/09/17 14:06:10;;;;;;;9.43;0.80;;;;;;;;;;5013391;28;20041;-45
2022/09/17 14:08:42;;;;;;;3.75;0.80;;;;;;;;;;5025836;28;20492;-46
2022/09/17 14:11:22;;;;;;;1.13;0.68;;;;;;;;;;5019196;28;20111;-48
2022/09/17 14:14:03;;;;;;;2.90;0.50;;;;;;;;;;5007917;28;20088;-49
2022/09/17 14:16:35;;;;;;;9.15;1.13;;;;;;;;;;5007557;28;20037;-47
2022/09/17 14:19:38;;;;;;;2.42;0.68;;;;;;;;;;5008994;28;20025;-44
2022/09/17 14:22:04;;;;;;;3.72;0.50;;;;;;;;;;5022814;28;20053;-45
2022/09/17 14:24:39;;;;;;;5.38;0.80;;;;;;;;;;5024079;28;20385;-48
2022/09/17 14:27:29;;;;;;;2.47;0.88;;;;;;;;;;5010284;28;20503;-47
2022/09/17 14:29:57;;;;;;;9.63;0.88;;;;;;;;;;5004275;28;20069;-45
2022/09/17 14:32:30;;;;;;;4.40;0.60;;;;;;;;;;5023864;28;20038;-49
2022/09/17 14:34:58;;;;;;;3.55;0.73;;;;;;;;;;5024106;28;20033;-47
2022/09/17 14:37:24;;;;;;;1.42;0.70;;;;;;;;;;5003945;28;20567;-48
2022/09/17 14:39:51;;;;;;;13.75;0.90;;;;;;;;;;5008311;28;20082;-44
2022/09/17 14:42:23;;;;;;;3.50;0.68;;;;;;;;;;5023844;28;20044;-49
2022/09/17 14:44:57;;;;;;;1.70;0.60;;;;;;;;;;5028027;28;20030;-46
2022/09/17 14:47:23;;;;;;;12.25;0.98;;;;;;;;;;5006262;28;20057;-49
2022/09/17 14:49:49;;;;;;;4.00;0.60;;;;;;;;;;5004673;28;20034;-46
2022/09/17 14:52:33;;;;;;;0.68;0.50;;;;;;;;;;5017430;28;20069;-47
2022/09/17 14:55:30;;;;;;;2.45;0.60;;;;;;;;;;5017725;28;20027;-47
2022/09/17 14:58:01;;;;;;;1.08;0.80;;;;;;;;;;5011321;28;20136;-49
2022/09/17 15:00:35;;;;;;;2.95;0.60;;;;;;;;;;5019001;28;20054;-48
2022/09/17 15:03:01;;;;;;;1.77;0.93;;;;;;;;;;5024833;28;20065;-45
2022/09/17 15:05:27;;;;;;;11.10;0.73;;;;;;;;;;5021021;28;20569;-48
2022/09/17 15:08:15;;;;;;;1.63;0.90;;;;;;;;;;5006478;28;20029;-45
2022/09/17 15:10:44;;;;;;;3.63;0.63;;;;;;;;;;5005601;28;20652;-45
2022/09/17 15:13:13;;;;;;;10.23;0.70;;;;;;;;;;5007282;28;20045;-50
2022/09/17 15:15:49;;;;;;;5.00;0.90;;;;;;;;;;5006875;28;20136;-45
2022/09/17 15:18:15;;;;;;;1.25;0.68;;;;;;;;;;5012854;28;20032;-45
2022/09/17 15:20:41;;;;;;;8.55;0.60;;;;;;;;;;5016252;28;20049;-46